Terminal Aerodrome Forecast
Issued by NWS

Home | Current Version | Previous Version | Text Only | Print | Product List | Glossary On
Versions: 1 2 3 4 5 6 7 8 9 10 11 12 13 14 15 16 17 18 19 20 21 22 23 24 25 26 27 28 29 30 31 32
000
FTUS45 KPSR 130100 AAC
TAFPHX
TAF AMD
KPHX 130124Z 1301/1324 13010G20KT P6SM BKN150 OVC200
     FM130230 12010KT P6SM BKN150 OVC200
     FM130400 VRB05KT P6SM BKN150 OVC200
     FM131100 09006KT P6SM BKN150 OVC200=

USA.gov is the U.S. government's official web portal to all federal, state and local government web resources and services.